Little Rock, Mississippi
Current Conditions -  °F | °C
As of 2:58 AM on Saturday 29 Nov 2014 (Local Time) from KMEI Reporting Station
Clear Clear  
Wind Chill: 33°   Ceiling: Unl
Heat Index: 37°   Visibility: 10mi
Dew Point: 31°   Wind: 5mph
Humidity: 79%   Direction: 200°SSW
Pressure: 30.22"   Gusts: NA
Location:  32.53°N, 89.03°W
Report Text: KMEI 290858Z AUTO 20004KT 10SM CLR 03/M01 A3022 RMK AO2 SLP233 T00281006 56005
Loading
Personal Weather Stations






























Interactive Weather Map New forecast layout! Learn more

10-Day Weather Forecast

Advertisements
Track Severe Weather on mobile